createdAt,value
2023-03-16T00:02:06.421Z,96.91
2023-03-16T00:04:37.684Z,98.35
2023-03-16T00:07:05.977Z,97.53
2023-03-16T00:09:32.659Z,97.41
2023-03-16T00:12:03.320Z,96.71
2023-03-16T00:14:30.960Z,97.90
2023-03-16T00:16:57.969Z,98.00
2023-03-16T00:19:24.900Z,97.61
2023-03-16T00:21:51.985Z,98.38
2023-03-16T00:24:20.221Z,98.33
2023-03-16T00:26:47.793Z,99.16
2023-03-16T00:29:14.683Z,99.36
2023-03-16T00:31:44.720Z,99.04
2023-03-16T00:34:12.275Z,98.96
2023-03-16T00:36:39.371Z,98.90
2023-03-16T00:39:07.098Z,99.06
2023-03-16T00:41:38.209Z,99.42
2023-03-16T00:44:05.797Z,99.00
2023-03-16T00:46:32.889Z,98.68
2023-03-16T00:48:59.656Z,100.00
2023-03-16T00:51:26.315Z,100.00
2023-03-16T00:53:53.001Z,99.75
2023-03-16T00:56:19.740Z,99.51
2023-03-16T00:58:46.351Z,100.00
2023-03-16T01:01:16.416Z,99.75
2023-03-16T01:03:43.258Z,99.66
2023-03-16T01:06:17.392Z,99.12
2023-03-16T01:08:44.526Z,99.91
2023-03-16T01:11:17.513Z,99.48
2023-03-16T01:13:45.054Z,99.78
2023-03-16T01:16:11.722Z,100.00
2023-03-16T01:18:38.595Z,100.00
2023-03-16T01:21:06.944Z,100.00
2023-03-16T01:23:34.067Z,100.00
2023-03-16T01:26:02.547Z,100.00
2023-03-16T01:28:31.953Z,100.00
2023-03-16T01:31:05.608Z,100.00
2023-03-16T01:33:33.893Z,99.50
2023-03-16T01:36:04.481Z,100.00
2023-03-16T01:38:31.350Z,100.00
2023-03-16T01:40:58.459Z,100.00
2023-03-16T01:43:27.592Z,100.00
2023-03-16T01:46:27.834Z,99.07
2023-03-16T01:49:27.615Z,98.87
2023-03-16T01:51:58.382Z,99.02
2023-03-16T01:54:53.163Z,99.37
2023-03-16T01:57:22.293Z,98.69
2023-03-16T01:59:55.764Z,98.26
2023-03-16T02:02:24.798Z,99.05
2023-03-16T02:04:56.877Z,98.74
2023-03-16T02:07:26.295Z,98.37
2023-03-16T02:09:56.225Z,98.94
2023-03-16T02:12:22.986Z,99.62
2023-03-16T02:14:50.520Z,100.00
2023-03-16T02:17:19.993Z,100.00
2023-03-16T02:20:01.655Z,100.00
2023-03-16T02:22:28.651Z,100.00
2023-03-16T02:24:55.407Z,99.92
2023-03-16T02:27:40.324Z,99.66
2023-03-16T02:30:13.670Z,100.00
2023-03-16T02:32:41.047Z,100.00
2023-03-16T02:35:09.456Z,100.00
2023-03-16T02:37:36.345Z,100.00
2023-03-16T02:40:18.658Z,100.00
2023-03-16T02:42:45.257Z,100.00
2023-03-16T02:45:12.726Z,100.00
2023-03-16T02:47:42.366Z,100.00
2023-03-16T02:50:11.168Z,100.00
2023-03-16T02:52:38.482Z,100.00
2023-03-16T02:55:06.975Z,100.00
2023-03-16T02:57:33.897Z,100.00
2023-03-16T03:00:01.530Z,100.00
2023-03-16T03:02:28.266Z,100.00
2023-03-16T03:04:54.880Z,99.86
2023-03-16T03:07:21.979Z,99.18
2023-03-16T03:09:48.632Z,98.71
2023-03-16T03:12:15.302Z,99.47
2023-03-16T03:14:42.227Z,100.00
2023-03-16T03:17:10.463Z,100.00
2023-03-16T03:19:37.412Z,100.00
2023-03-16T03:22:06.573Z,100.00
2023-03-16T03:24:34.217Z,100.00
2023-03-16T03:27:01.372Z,100.00
2023-03-16T03:29:34.773Z,100.00
2023-03-16T03:32:02.250Z,99.74
2023-03-16T03:34:29.508Z,99.63
2023-03-16T03:36:56.389Z,100.00
2023-03-16T03:39:22.984Z,100.00
2023-03-16T03:41:49.589Z,100.00
2023-03-16T03:44:16.358Z,100.00
2023-03-16T03:46:43.033Z,100.00
2023-03-16T03:49:09.850Z,100.00
2023-03-16T03:51:36.627Z,99.83
2023-03-16T03:54:03.503Z,99.57
2023-03-16T03:56:30.355Z,100.00
2023-03-16T03:58:57.762Z,100.00
2023-03-16T04:01:25.161Z,100.00
2023-03-16T04:03:51.952Z,100.00
2023-03-16T04:06:18.589Z,100.00
2023-03-16T04:08:45.282Z,100.00
2023-03-16T04:11:12.160Z,100.00
2023-03-16T04:13:38.721Z,100.00
2023-03-16T04:16:05.911Z,100.00
2023-03-16T04:18:38.852Z,100.00
2023-03-16T04:21:06.704Z,100.00
2023-03-16T04:23:34.370Z,100.00
2023-03-16T04:26:01.844Z,100.00
2023-03-16T04:28:28.527Z,100.00
2023-03-16T04:30:55.381Z,100.00
2023-03-16T04:33:22.638Z,100.00
2023-03-16T04:35:49.985Z,100.00
2023-03-16T04:38:16.732Z,100.00
2023-03-16T04:40:43.538Z,100.00
2023-03-16T04:43:10.236Z,100.00
2023-03-16T04:45:36.880Z,100.00
2023-03-16T04:48:03.937Z,99.84
2023-03-16T04:50:31.880Z,100.00
2023-03-16T04:52:58.608Z,100.00
2023-03-16T04:55:25.235Z,100.00
2023-03-16T04:57:52.708Z,100.00
2023-03-16T05:00:20.744Z,100.00
2023-03-16T05:02:48.224Z,99.41
2023-03-16T05:05:15.481Z,100.00
2023-03-16T05:07:46.295Z,100.00
2023-03-16T05:10:15.486Z,99.79
2023-03-16T05:12:42.235Z,99.54
2023-03-16T05:15:09.673Z,100.00
2023-03-16T05:17:36.243Z,100.00
2023-03-16T05:20:08.470Z,100.00
2023-03-16T05:22:38.039Z,99.68
2023-03-16T05:25:05.767Z,100.00
2023-03-16T05:27:32.341Z,100.00
2023-03-16T05:29:58.999Z,100.00
2023-03-16T05:32:25.704Z,100.00
2023-03-16T05:34:53.394Z,100.00
2023-03-16T05:37:20.104Z,100.00
2023-03-16T05:39:46.771Z,100.00
2023-03-16T05:42:13.868Z,100.00
2023-03-16T05:44:40.648Z,100.00
2023-03-16T05:47:07.353Z,100.00
2023-03-16T05:49:33.947Z,100.00
2023-03-16T05:52:00.567Z,100.00
2023-03-16T05:54:27.207Z,100.00
2023-03-16T05:56:54.789Z,100.00
2023-03-16T05:59:21.427Z,100.00
2023-03-16T06:01:49.812Z,100.00
2023-03-16T06:04:16.566Z,100.00
2023-03-16T06:06:43.809Z,100.00
2023-03-16T06:09:10.627Z,100.00
2023-03-16T06:11:37.329Z,100.00
2023-03-16T06:14:04.414Z,100.00
2023-03-16T06:16:31.144Z,100.00
2023-03-16T06:18:59.784Z,100.00
2023-03-16T06:21:26.654Z,100.00
2023-03-16T06:23:53.830Z,100.00
2023-03-16T06:26:20.493Z,100.00
2023-03-16T06:28:48.716Z,100.00
2023-03-16T06:31:15.570Z,100.00
2023-03-16T06:33:42.632Z,100.00
2023-03-16T06:36:09.441Z,100.00
2023-03-16T06:38:36.249Z,100.00
2023-03-16T06:41:03.005Z,100.00
2023-03-16T06:43:30.024Z,100.00
2023-03-16T06:45:57.593Z,100.00
2023-03-16T06:48:24.564Z,100.00
2023-03-16T06:50:52.290Z,100.00
2023-03-16T06:53:18.934Z,100.00
2023-03-16T06:55:46.398Z,100.00
2023-03-16T06:58:14.362Z,100.00
2023-03-16T07:00:41.030Z,100.00
2023-03-16T07:03:07.756Z,100.00
2023-03-16T07:05:34.520Z,100.00
2023-03-16T07:08:01.457Z,100.00
2023-03-16T07:10:28.550Z,100.00
2023-03-16T07:12:55.523Z,100.00
2023-03-16T07:15:22.264Z,100.00
2023-03-16T07:17:49.249Z,100.00
2023-03-16T07:20:16.239Z,100.00
2023-03-16T07:22:42.887Z,100.00
2023-03-16T07:25:11.580Z,100.00
2023-03-16T07:27:39.153Z,100.00
2023-03-16T07:30:06.749Z,100.00
2023-03-16T07:32:33.781Z,100.00
2023-03-16T07:35:00.573Z,100.00
2023-03-16T07:37:27.392Z,99.22
2023-03-16T07:39:54.608Z,98.31
2023-03-16T07:42:23.002Z,96.83
2023-03-16T07:44:51.868Z,96.72
2023-03-16T07:47:18.866Z,97.28
2023-03-16T07:49:45.533Z,95.92
2023-03-16T07:52:15.154Z,95.39
2023-03-16T07:54:42.010Z,95.38
2023-03-16T07:57:09.027Z,95.93
2023-03-16T07:59:35.701Z,96.24
2023-03-16T08:02:02.318Z,95.85
2023-03-16T08:04:28.991Z,94.66
2023-03-16T08:07:00.489Z,93.53
2023-03-16T08:09:27.774Z,95.36
2023-03-16T08:11:54.469Z,93.72
2023-03-16T08:14:21.169Z,93.25
2023-03-16T08:16:47.808Z,93.12
2023-03-16T08:19:14.735Z,92.97
2023-03-16T08:21:58.276Z,92.11
2023-03-16T08:24:29.784Z,92.75
2023-03-16T08:26:57.718Z,93.83
2023-03-16T08:29:25.254Z,94.08
2023-03-16T08:31:56.777Z,94.58
2023-03-16T08:34:24.255Z,92.26
2023-03-16T08:36:50.922Z,89.09
2023-03-16T08:39:17.522Z,88.95
2023-03-16T08:41:46.136Z,88.01
2023-03-16T08:44:13.320Z,87.48
2023-03-16T08:46:40.952Z,86.73
2023-03-16T08:49:07.648Z,87.07
2023-03-16T08:51:34.874Z,86.45
2023-03-16T08:54:01.544Z,86.30
2023-03-16T08:56:30.842Z,85.43
2023-03-16T08:58:57.707Z,85.40
2023-03-16T09:01:25.896Z,84.83
2023-03-16T09:03:53.339Z,87.82
2023-03-16T09:06:20.132Z,87.39
2023-03-16T09:08:47.962Z,88.54
2023-03-16T09:11:19.315Z,88.42
2023-03-16T09:13:46.461Z,88.20
2023-03-16T09:16:15.412Z,87.27
2023-03-16T09:18:43.653Z,85.55
2023-03-16T09:21:14.064Z,85.84
2023-03-16T09:23:42.924Z,85.90
2023-03-16T09:26:10.466Z,85.81
2023-03-16T09:28:39.217Z,85.59
2023-03-16T09:31:07.255Z,85.74
2023-03-16T09:33:35.592Z,87.05
2023-03-16T09:36:03.297Z,86.84
2023-03-16T09:38:30.660Z,86.34
2023-03-16T09:41:00.996Z,85.10
2023-03-16T09:43:27.857Z,85.57
2023-03-16T09:46:02.996Z,86.59
2023-03-16T09:48:31.120Z,80.91
2023-03-16T09:51:00.186Z,82.32
2023-03-16T09:53:32.706Z,79.62
2023-03-16T09:56:03.746Z,76.10
2023-03-16T09:58:32.476Z,75.01
2023-03-16T10:01:23.553Z,75.48
2023-03-16T10:04:41.089Z,75.63
2023-03-16T10:07:38.428Z,75.32
2023-03-16T10:10:31.442Z,75.17
2023-03-16T10:13:00.143Z,72.69
2023-03-16T10:15:30.154Z,74.67
2023-03-16T10:18:13.694Z,71.69
2023-03-16T10:20:42.145Z,72.53
2023-03-16T10:23:18.811Z,70.63
2023-03-16T10:25:51.906Z,70.58
2023-03-16T10:28:25.057Z,70.88
2023-03-16T10:30:54.826Z,69.84
2023-03-16T10:33:27.423Z,70.41
2023-03-16T10:36:19.548Z,72.35
2023-03-16T10:39:08.090Z,67.74
2023-03-16T10:41:46.040Z,69.32
2023-03-16T10:44:16.958Z,69.35
2023-03-16T10:46:58.151Z,66.43
2023-03-16T10:49:36.289Z,67.92
2023-03-16T10:52:11.809Z,66.93
2023-03-16T10:54:40.952Z,66.73
2023-03-16T10:57:27.177Z,65.00
2023-03-16T10:59:57.826Z,66.56
2023-03-16T11:02:32.020Z,65.03
2023-03-16T11:04:58.743Z,64.39
2023-03-16T11:07:25.800Z,63.95
2023-03-16T11:09:53.870Z,62.14
2023-03-16T11:12:31.203Z,62.77
2023-03-16T11:15:09.382Z,64.14
2023-03-16T11:17:44.957Z,62.49
2023-03-16T11:20:22.440Z,62.76
2023-03-16T11:22:49.434Z,61.50
2023-03-16T11:25:31.540Z,61.79
2023-03-16T11:28:12.208Z,60.66
2023-03-16T11:31:25.342Z,62.14
2023-03-16T11:33:52.475Z,60.59
2023-03-16T11:36:40.559Z,62.72
2023-03-16T11:39:40.694Z,61.42
2023-03-16T11:42:27.866Z,60.25
2023-03-16T11:44:59.710Z,60.78
2023-03-16T11:48:08.458Z,60.53
2023-03-16T11:50:48.367Z,61.10
2023-03-16T11:53:47.998Z,60.25
2023-03-16T11:56:42.741Z,59.99
2023-03-16T11:59:30.550Z,59.41
2023-03-16T12:02:21.694Z,59.77
2023-03-16T12:04:57.526Z,59.46
2023-03-16T12:07:53.481Z,57.76
2023-03-16T12:10:43.880Z,58.25
2023-03-16T12:13:31.249Z,59.06
2023-03-16T12:16:06.813Z,58.45
2023-03-16T12:18:40.170Z,58.03
2023-03-16T12:21:13.375Z,56.77
2023-03-16T12:23:44.351Z,56.70
2023-03-16T12:26:12.697Z,57.44
2023-03-16T12:28:41.330Z,56.49
2023-03-16T12:31:20.358Z,55.52
2023-03-16T12:33:58.948Z,54.04
2023-03-16T12:36:41.924Z,54.01
2023-03-16T12:39:45.883Z,54.21
2023-03-16T12:42:37.018Z,53.59
2023-03-16T12:45:11.568Z,53.53
2023-03-16T12:48:11.516Z,53.65
2023-03-16T12:50:49.382Z,53.45
2023-03-16T12:53:49.009Z,53.40
2023-03-16T12:56:19.098Z,55.04
2023-03-16T12:58:50.825Z,54.15
2023-03-16T13:01:29.683Z,55.13
2023-03-16T13:04:15.207Z,55.18
2023-03-16T13:07:07.833Z,53.99
2023-03-16T13:09:37.279Z,55.20
2023-03-16T13:12:07.390Z,55.32
2023-03-16T13:14:42.485Z,56.59
2023-03-16T13:17:23.831Z,56.53
2023-03-16T13:20:31.187Z,54.98
2023-03-16T13:23:29.944Z,53.48
2023-03-16T13:26:50.808Z,55.50
2023-03-16T13:29:33.754Z,56.44
2023-03-16T13:32:03.979Z,54.60
2023-03-16T13:34:32.967Z,55.32
2023-03-16T13:37:01.720Z,56.12
2023-03-16T13:39:30.407Z,56.00
2023-03-16T13:42:24.592Z,56.75
2023-03-16T13:44:57.005Z,55.46
2023-03-16T13:47:26.725Z,55.00
2023-03-16T13:49:58.611Z,54.69
2023-03-16T13:52:29.496Z,54.73
2023-03-16T13:54:57.715Z,54.13
2023-03-16T13:57:32.515Z,54.69
2023-03-16T14:00:16.041Z,53.47
2023-03-16T14:02:43.950Z,55.78
2023-03-16T14:05:17.380Z,57.00
2023-03-16T14:07:47.432Z,57.21
2023-03-16T14:10:17.389Z,58.11
2023-03-16T14:12:51.913Z,57.76
2023-03-16T14:15:19.076Z,58.17
2023-03-16T14:17:45.897Z,58.54
2023-03-16T14:20:22.895Z,58.66
2023-03-16T14:22:53.599Z,57.29
2023-03-16T14:25:25.684Z,57.74
2023-03-16T14:28:06.402Z,57.77
2023-03-16T14:30:33.186Z,58.48
2023-03-16T14:33:06.162Z,57.89
2023-03-16T14:35:43.982Z,56.81
2023-03-16T14:38:22.840Z,56.93
2023-03-16T14:40:55.179Z,58.48
2023-03-16T14:43:36.818Z,58.72
2023-03-16T14:46:05.682Z,57.60
2023-03-16T14:48:33.120Z,57.50
2023-03-16T14:51:02.346Z,57.46
2023-03-16T14:53:29.709Z,57.32
2023-03-16T14:55:56.946Z,56.50
2023-03-16T14:58:24.090Z,57.54
2023-03-16T15:00:53.542Z,56.87
2023-03-16T15:03:22.961Z,56.76
2023-03-16T15:05:51.249Z,54.68
2023-03-16T15:08:26.816Z,55.34
2023-03-16T15:10:54.637Z,54.74
2023-03-16T15:13:41.243Z,55.77
2023-03-16T15:16:11.724Z,55.16
2023-03-16T15:18:42.049Z,54.72
2023-03-16T15:21:18.506Z,54.60
2023-03-16T15:23:45.508Z,52.57
2023-03-16T15:26:14.103Z,50.90
2023-03-16T15:28:41.155Z,48.33
2023-03-16T15:31:08.107Z,49.24
2023-03-16T15:33:34.837Z,49.45
2023-03-16T15:36:03.637Z,48.44
2023-03-16T15:38:32.675Z,48.88
2023-03-16T15:40:59.802Z,48.77
2023-03-16T15:43:29.117Z,48.31
2023-03-16T15:45:57.680Z,49.06
2023-03-16T15:48:26.568Z,49.33
2023-03-16T15:51:01.333Z,50.16
2023-03-16T15:53:32.622Z,51.29
2023-03-16T15:56:03.289Z,51.27
2023-03-16T15:58:30.985Z,50.57
2023-03-16T16:01:00.004Z,50.87
2023-03-16T16:03:27.562Z,50.48
2023-03-16T16:05:54.586Z,50.98
2023-03-16T16:08:21.766Z,51.01
2023-03-16T16:10:49.812Z,50.92
2023-03-16T16:13:21.468Z,50.76
2023-03-16T16:15:49.121Z,52.00
2023-03-16T16:18:30.773Z,52.22
2023-03-16T16:20:58.860Z,52.55
2023-03-16T16:23:26.273Z,52.43
2023-03-16T16:25:58.782Z,53.24
2023-03-16T16:28:29.512Z,53.34
2023-03-16T16:30:56.750Z,53.79
2023-03-16T16:33:31.818Z,54.23
2023-03-16T16:36:00.833Z,54.53
2023-03-16T16:38:28.236Z,56.20
2023-03-16T16:40:58.247Z,55.24
2023-03-16T16:43:32.964Z,55.89
2023-03-16T16:46:01.322Z,56.77
2023-03-16T16:48:37.233Z,56.98
2023-03-16T16:51:07.426Z,57.76
2023-03-16T16:53:34.485Z,58.61
2023-03-16T16:56:02.177Z,58.79
2023-03-16T16:58:28.995Z,59.26
2023-03-16T17:00:57.148Z,59.79
2023-03-16T17:03:28.655Z,59.76
2023-03-16T17:05:58.370Z,61.16
2023-03-16T17:08:26.420Z,61.14
2023-03-16T17:10:54.103Z,60.66
2023-03-16T17:13:27.527Z,61.91
2023-03-16T17:15:55.295Z,61.99
2023-03-16T17:18:22.580Z,61.51
2023-03-16T17:20:50.844Z,61.07
2023-03-16T17:23:33.465Z,61.65
2023-03-16T17:26:28.839Z,61.19
2023-03-16T17:29:06.379Z,60.22
2023-03-16T17:31:36.713Z,60.28
2023-03-16T17:34:19.028Z,59.03
2023-03-16T17:36:47.002Z,60.07
2023-03-16T17:39:38.638Z,60.66
2023-03-16T17:42:07.452Z,61.85
2023-03-16T17:44:38.957Z,61.32
2023-03-16T17:47:36.552Z,62.64
2023-03-16T17:50:22.590Z,61.24
2023-03-16T17:52:49.793Z,62.00
2023-03-16T17:55:20.581Z,63.03
2023-03-16T17:57:49.909Z,62.52
2023-03-16T18:00:36.144Z,63.20
2023-03-16T18:03:14.408Z,64.47
2023-03-16T18:05:41.410Z,65.11
2023-03-16T18:08:15.423Z,66.15
2023-03-16T18:10:42.292Z,65.81
2023-03-16T18:13:18.329Z,66.15
2023-03-16T18:15:47.204Z,67.32
2023-03-16T18:18:21.621Z,67.63
2023-03-16T18:20:51.037Z,68.06
2023-03-16T18:23:23.110Z,68.67
2023-03-16T18:25:53.100Z,67.88
2023-03-16T18:28:20.787Z,67.18
2023-03-16T18:30:52.660Z,66.51
2023-03-16T18:33:27.809Z,67.16
2023-03-16T18:36:01.310Z,67.97
2023-03-16T18:38:36.404Z,67.36
2023-03-16T18:41:21.069Z,66.61
2023-03-16T18:43:48.220Z,67.56
2023-03-16T18:46:28.342Z,68.33
2023-03-16T18:48:57.380Z,68.50
2023-03-16T18:51:24.246Z,68.30
2023-03-16T18:53:51.042Z,68.17
2023-03-16T18:56:21.741Z,68.18
2023-03-16T18:58:50.151Z,68.45
2023-03-16T19:01:30.899Z,68.88
2023-03-16T19:03:59.241Z,67.98
2023-03-16T19:06:32.702Z,68.31
2023-03-16T19:09:29.549Z,68.66
2023-03-16T19:11:57.239Z,68.56
2023-03-16T19:14:33.131Z,69.25
2023-03-16T19:17:01.408Z,68.56
2023-03-16T19:19:28.968Z,69.06
2023-03-16T19:21:58.380Z,69.25
2023-03-16T19:24:31.420Z,68.68
2023-03-16T19:26:58.317Z,68.60
2023-03-16T19:29:34.171Z,69.04
2023-03-16T19:32:01.662Z,68.44
2023-03-16T19:34:29.237Z,68.63
2023-03-16T19:36:55.978Z,68.63
2023-03-16T19:39:22.953Z,69.03
2023-03-16T19:41:55.327Z,68.61
2023-03-16T19:44:25.486Z,69.14
2023-03-16T19:46:52.616Z,68.86
2023-03-16T19:49:22.122Z,69.17
2023-03-16T19:51:53.793Z,68.74
2023-03-16T19:54:26.436Z,68.52
2023-03-16T19:56:56.103Z,69.07
2023-03-16T19:59:24.883Z,68.65
2023-03-16T20:01:51.755Z,68.65
2023-03-16T20:04:21.951Z,68.04
2023-03-16T20:06:50.018Z,68.73
2023-03-16T20:09:17.666Z,68.97
2023-03-16T20:11:44.703Z,69.05
2023-03-16T20:14:19.387Z,68.63
2023-03-16T20:16:50.330Z,67.88
2023-03-16T20:19:17.052Z,68.52
2023-03-16T20:21:43.985Z,68.88
2023-03-16T20:24:19.835Z,69.17
2023-03-16T20:26:48.480Z,68.99
2023-03-16T20:29:27.723Z,68.94
2023-03-16T20:31:54.434Z,68.91
2023-03-16T20:34:25.207Z,67.75
2023-03-16T20:36:51.987Z,68.12
2023-03-16T20:39:18.709Z,68.95
2023-03-16T20:41:45.743Z,67.93
2023-03-16T20:44:19.018Z,68.07
2023-03-16T20:46:47.305Z,68.09
2023-03-16T20:49:30.141Z,68.11
2023-03-16T20:51:56.990Z,67.96
2023-03-16T20:54:24.926Z,67.41
2023-03-16T20:56:54.062Z,66.97
2023-03-16T20:59:25.170Z,68.05
2023-03-16T21:01:54.761Z,67.95
2023-03-16T21:04:28.420Z,67.45
2023-03-16T21:06:56.245Z,67.18
2023-03-16T21:09:27.093Z,67.91
2023-03-16T21:11:56.907Z,68.12
2023-03-16T21:14:24.597Z,67.85
2023-03-16T21:16:52.612Z,68.38
2023-03-16T21:19:21.840Z,68.30
2023-03-16T21:21:48.982Z,68.08
2023-03-16T21:24:16.407Z,68.31
2023-03-16T21:26:44.242Z,68.47
2023-03-16T21:29:21.734Z,68.63
2023-03-16T21:31:49.060Z,68.41
2023-03-16T21:34:24.272Z,68.17
2023-03-16T21:36:51.147Z,68.37
2023-03-16T21:39:19.779Z,68.70
2023-03-16T21:41:47.940Z,68.34
2023-03-16T21:44:14.546Z,68.01
2023-03-16T21:46:41.337Z,68.13
2023-03-16T21:49:11.167Z,68.18
2023-03-16T21:51:37.861Z,67.74
2023-03-16T21:54:08.013Z,68.18
2023-03-16T21:56:36.214Z,67.35
2023-03-16T21:59:02.968Z,68.10
2023-03-16T22:01:31.840Z,68.55
2023-03-16T22:04:04.429Z,68.45
2023-03-16T22:06:32.133Z,67.90
2023-03-16T22:08:59.873Z,67.79
2023-03-16T22:11:28.601Z,68.14
2023-03-16T22:13:56.351Z,67.50
2023-03-16T22:16:26.154Z,68.47
2023-03-16T22:18:57.244Z,68.45
2023-03-16T22:21:29.164Z,68.37
2023-03-16T22:23:56.878Z,68.75
2023-03-16T22:26:23.844Z,68.62
2023-03-16T22:28:51.039Z,68.45
2023-03-16T22:31:38.967Z,68.70
2023-03-16T22:34:06.624Z,68.58
2023-03-16T22:36:33.896Z,68.20
2023-03-16T22:39:08.334Z,68.18
2023-03-16T22:41:35.270Z,67.74
2023-03-16T22:44:02.043Z,68.12
2023-03-16T22:46:29.352Z,68.97
2023-03-16T22:48:56.488Z,67.95
2023-03-16T22:51:30.464Z,67.94
2023-03-16T22:54:08.727Z,67.74
2023-03-16T22:56:35.848Z,67.71
2023-03-16T22:59:06.387Z,67.77
2023-03-16T23:01:44.011Z,67.81
2023-03-16T23:04:15.789Z,67.96
2023-03-16T23:06:42.851Z,67.90
2023-03-16T23:09:13.949Z,68.20
2023-03-16T23:11:43.545Z,67.43
2023-03-16T23:14:18.943Z,67.77
2023-03-16T23:16:46.945Z,67.51
2023-03-16T23:19:36.810Z,67.63
2023-03-16T23:22:05.890Z,68.28
2023-03-16T23:24:33.515Z,68.26
2023-03-16T23:27:00.911Z,67.86
2023-03-16T23:29:28.239Z,67.87
2023-03-16T23:31:54.964Z,68.36
2023-03-16T23:34:23.463Z,67.92
2023-03-16T23:36:51.124Z,67.34
2023-03-16T23:39:18.033Z,67.92
2023-03-16T23:41:48.869Z,67.69
2023-03-16T23:44:17.918Z,67.07
2023-03-16T23:46:44.876Z,67.38
2023-03-16T23:49:18.642Z,67.44
2023-03-16T23:51:46.330Z,67.48
2023-03-16T23:54:24.976Z,67.09
2023-03-16T23:56:52.154Z,66.98
2023-03-16T23:59:19.732Z,66.84
